Time;durP1;ratioP1;P1;durP2;ratioP2;P2;SDS_P1;SDS_P2;PMS_P1;PMS_P2;Temp;Humidity;BMP_temperature;BMP_pressure;BME280_temperature;BME280_humidity;BME280_pressure;Samples;Min_cycle;Max_cycle;Signal;HPM_P1;HPM_P2
2023/03/05 00:01:21;;;;;;;;;;;;;;;9.69;46.04;101135.38;4958855;28;6776;-76
2023/03/05 00:03:47;;;;;;;;;;;;;;;9.72;45.85;101140.72;4964470;28;6809;-77
2023/03/05 00:06:13;;;;;;;;;;;;;;;9.72;45.70;101139.81;4954759;28;8694;-76
2023/03/05 00:08:40;;;;;;;;;;;;;;;9.73;45.54;101139.03;4963134;28;7216;-76
2023/03/05 00:11:09;;;;;;;;;;;;;;;9.72;45.83;101129.59;4965820;28;6804;-76
2023/03/05 00:13:35;;;;;;;;;;;;;;;9.71;45.37;101127.81;4962139;28;7861;-77
2023/03/05 00:16:14;;;;;;;;;;;;;;;9.68;45.33;101125.06;4958622;28;6792;-76
2023/03/05 00:18:41;;;;;;;;;;;;;;;9.69;45.23;101125.16;4966660;28;6868;-76
2023/03/05 00:21:27;;;;;;;;;;;;;;;9.68;45.89;101128.50;4950426;28;8717;-74
2023/03/05 00:23:54;;;;;;;;;;;;;;;9.67;45.42;101126.72;4967076;28;6793;-74
2023/03/05 00:26:24;;;;;;;;;;;;;;;9.67;45.08;101134.41;4963084;28;7278;-74
2023/03/05 00:28:51;;;;;;;;;;;;;;;9.68;45.80;101127.63;4973517;28;7254;-74
2023/03/05 00:31:21;;;;;;;;;;;;;;;9.67;45.99;101128.44;4958553;28;7495;-74
2023/03/05 00:33:54;;;;;;;;;;;;;;;9.66;46.07;101119.84;4939083;28;8490;-74
2023/03/05 00:36:20;;;;;;;;;;;;;;;9.65;45.39;101120.63;4945831;28;7273;-74
2023/03/05 00:38:46;;;;;;;;;;;;;;;9.66;45.42;101119.84;4965029;28;6975;-74
2023/03/05 00:41:12;;;;;;;;;;;;;;;9.67;46.05;101123.31;4945122;28;6788;-74
2023/03/05 00:43:37;;;;;;;;;;;;;;;9.69;45.58;101116.59;4959478;28;7012;-74
2023/03/05 00:46:03;;;;;;;;;;;;;;;9.70;45.43;101110.69;4953689;28;6973;-74
2023/03/05 00:48:29;;;;;;;;;;;;;;;9.69;45.92;101106.38;4937703;28;7200;-74
2023/03/05 00:50:55;;;;;;;;;;;;;;;9.71;45.93;101099.66;4939605;28;6784;-74
2023/03/05 00:53:20;;;;;;;;;;;;;;;9.72;45.58;101092.09;4925859;28;6871;-74
2023/03/05 00:55:46;;;;;;;;;;;;;;;9.73;45.87;101092.94;4945547;28;6930;-74
2023/03/05 00:58:12;;;;;;;;;;;;;;;9.73;45.94;101087.84;4949442;28;7411;-75
2023/03/05 01:00:37;;;;;;;;;;;;;;;9.74;46.50;101092.16;4936982;28;8363;-75
2023/03/05 01:03:03;;;;;;;;;;;;;;;9.71;46.54;101089.41;4962969;28;6845;-74
2023/03/05 01:05:29;;;;;;;;;;;;;;;9.72;45.72;101089.53;4955405;28;6951;-74
2023/03/05 01:07:55;;;;;;;;;;;;;;;9.71;46.89;101086.84;4962684;28;7320;-74
2023/03/05 01:10:25;;;;;;;;;;;;;;;9.69;46.05;101089.31;4963471;28;6784;-74
2023/03/05 01:12:55;;;;;;;;;;;;;;;9.68;46.43;101084.13;4943286;28;6860;-74
2023/03/05 01:15:22;;;;;;;;;;;;;;;9.66;46.72;101080.59;4965150;28;6812;-74
2023/03/05 01:17:47;;;;;;;;;;;;;;;9.66;46.50;101080.59;4944573;28;6952;-74
2023/03/05 01:20:16;;;;;;;;;;;;;;;9.66;46.67;101080.59;4959838;28;8520;-74
2023/03/05 01:22:42;;;;;;;;;;;;;;;9.64;46.31;101080.47;4940982;28;6800;-74
2023/03/05 01:25:08;;;;;;;;;;;;;;;9.64;46.25;101079.56;4938580;28;6772;-74
2023/03/05 01:27:34;;;;;;;;;;;;;;;9.63;46.28;101070.13;4945520;28;6861;-74
2023/03/05 01:30:00;;;;;;;;;;;;;;;9.61;46.57;101064.03;4945620;28;6959;-74
2023/03/05 01:32:25;;;;;;;;;;;;;;;9.59;46.13;101059.72;4940423;28;6820;-74
2023/03/05 01:34:51;;;;;;;;;;;;;;;9.60;46.50;101065.69;4944969;28;6808;-74
2023/03/05 01:37:17;;;;;;;;;;;;;;;9.58;46.82;101059.59;4966554;28;6848;-74
2023/03/05 01:39:42;;;;;;;;;;;;;;;9.56;46.96;101059.53;4943502;28;7095;-74
2023/03/05 01:42:08;;;;;;;;;;;;;;;9.54;46.72;101050.84;4943763;28;6780;-74
2023/03/05 01:44:34;;;;;;;;;;;;;;;9.54;46.89;101055.09;4961212;28;6860;-74
2023/03/05 01:47:00;;;;;;;;;;;;;;;9.50;47.13;101041.22;4942785;28;6800;-74
2023/03/05 01:49:37;;;;;;;;;;;;;;;9.49;46.81;101036.00;4945172;28;8758;-74
2023/03/05 01:52:16;;;;;;;;;;;;;;;9.46;47.19;101041.81;4951415;28;8565;-74
2023/03/05 01:54:48;;;;;;;;;;;;;;;9.44;47.22;101040.81;4947030;28;7143;-74
2023/03/05 01:57:34;;;;;;;;;;;;;;;9.44;47.26;101041.72;4963140;28;6808;-74
2023/03/05 02:00:08;;;;;;;;;;;;;;;9.43;46.85;101036.50;4945203;28;6812;-74
2023/03/05 02:02:34;;;;;;;;;;;;;;;9.43;47.11;101027.16;4946647;28;6995;-74
2023/03/05 02:05:09;;;;;;;;;;;;;;;9.44;46.88;101028.94;4946192;28;6963;-74
2023/03/05 02:07:38;;;;;;;;;;;;;;;9.43;47.21;101022.03;4963668;28;6804;-74
2023/03/05 02:10:37;;;;;;;;;;;;;;;9.43;47.52;101016.03;4948610;28;7211;-74
2023/03/05 02:13:09;;;;;;;;;;;;;;;9.42;48.07;101011.72;4938153;28;8269;-74
2023/03/05 02:15:37;;;;;;;;;;;;;;;9.42;47.59;101009.16;4954052;28;6808;-74
2023/03/05 02:18:03;;;;;;;;;;;;;;;9.41;47.91;101005.69;4946714;28;7182;-74
2023/03/05 02:20:55;;;;;;;;;;;;;;;9.40;47.47;100993.69;4938726;28;6816;-74
2023/03/05 02:23:27;;;;;;;;;;;;;;;9.41;47.74;100997.16;4964040;28;7215;-74
2023/03/05 02:25:54;;;;;;;;;;;;;;;9.40;47.59;100992.81;4947539;28;6888;-74
2023/03/05 02:28:45;;;;;;;;;;;;;;;9.39;47.91;100983.38;4957776;28;6981;-74
2023/03/05 02:31:21;;;;;;;;;;;;;;;9.38;48.48;100990.16;4972776;28;6808;-74
2023/03/05 02:33:48;;;;;;;;;;;;;;;9.36;48.21;100978.94;4968420;28;7128;-74
2023/03/05 02:36:14;;;;;;;;;;;;;;;9.36;48.51;100985.72;4976144;28;8747;-74
2023/03/05 02:38:41;;;;;;;;;;;;;;;9.35;48.45;100986.53;4961079;28;7234;-74
2023/03/05 02:41:07;;;;;;;;;;;;;;;9.34;48.23;100979.63;4971159;28;7865;-74
2023/03/05 02:43:33;;;;;;;;;;;;;;;9.32;47.58;100971.88;4984097;28;7001;-74
2023/03/05 02:45:59;;;;;;;;;;;;;;;9.33;48.00;100972.75;4964726;28;6853;-74
2023/03/05 02:48:25;;;;;;;;;;;;;;;9.30;48.49;100979.47;4964185;28;6915;-74
2023/03/05 02:50:51;;;;;;;;;;;;;;;9.29;48.58;100971.69;4950820;28;6935;-74
2023/03/05 02:53:16;;;;;;;;;;;;;;;9.27;49.10;100974.16;4980630;28;6950;-74
2023/03/05 02:55:46;;;;;;;;;;;;;;;9.26;48.78;100977.47;4964220;28;7845;-74
2023/03/05 02:58:12;;;;;;;;;;;;;;;9.25;48.32;100973.16;4971185;28;8190;-74
2023/03/05 03:00:38;;;;;;;;;;;;;;;9.23;48.60;100969.63;4946697;28;7140;-74
2023/03/05 03:03:04;;;;;;;;;;;;;;;9.24;48.85;100968.84;4948012;28;7044;-74
2023/03/05 03:05:29;;;;;;;;;;;;;;;9.23;48.27;100964.50;4939810;28;6868;-74
2023/03/05 03:07:55;;;;;;;;;;;;;;;9.22;49.32;100960.19;4940678;28;6773;-74
2023/03/05 03:10:21;;;;;;;;;;;;;;;9.23;48.43;100963.63;4957869;28;6942;-74
2023/03/05 03:12:46;;;;;;;;;;;;;;;9.22;48.10;100960.19;4955585;28;6934;-74
2023/03/05 03:15:15;;;;;;;;;;;;;;;9.23;49.27;100955.97;4943283;28;6780;-74
2023/03/05 03:17:41;;;;;;;;;;;;;;;9.25;48.91;100957.81;4957890;28;6967;-74
2023/03/05 03:20:12;;;;;;;;;;;;;;;9.24;48.61;100952.63;4956997;28;6772;-74
2023/03/05 03:22:39;;;;;;;;;;;;;;;9.24;49.45;100948.38;4957050;28;6812;-74
2023/03/05 03:25:05;;;;;;;;;;;;;;;9.24;48.42;100948.38;4941994;28;6776;-74
2023/03/05 03:27:31;;;;;;;;;;;;;;;9.24;49.38;100943.25;4939874;28;6796;-74
2023/03/05 03:30:01;;;;;;;;;;;;;;;9.24;48.59;100942.38;4939257;28;8599;-74
2023/03/05 03:32:27;;;;;;;;;;;;;;;9.25;49.11;100939.91;4959898;28;6792;-74
2023/03/05 03:34:53;;;;;;;;;;;;;;;9.25;48.63;100939.91;4963300;28;6948;-74
2023/03/05 03:37:19;;;;;;;;;;;;;;;9.24;49.83;100932.16;4960857;28;8634;-74
2023/03/05 03:39:45;;;;;;;;;;;;;;;9.21;50.02;100937.97;4965196;28;6772;-74
2023/03/05 03:42:10;;;;;;;;;;;;;;;9.22;49.09;100933.72;4963620;28;7828;-74
2023/03/05 03:44:36;;;;;;;;;;;;;;;9.20;48.88;100928.53;4966161;28;6771;-73
2023/03/05 03:47:02;;;;;;;;;;;;;;;9.19;48.93;100929.31;4964567;28;6784;-74
2023/03/05 03:49:27;;;;;;;;;;;;;;;9.16;50.18;100919.75;4962730;28;6907;-74
2023/03/05 03:51:54;;;;;;;;;;;;;;;9.15;49.43;100925.69;4964297;28;6913;-74
2023/03/05 03:54:21;;;;;;;;;;;;;;;9.13;49.07;100922.16;4965237;28;6963;-74
2023/03/05 03:56:47;;;;;;;;;;;;;;;9.14;49.98;100925.56;4963222;28;7074;-74
2023/03/05 03:59:13;;;;;;;;;;;;;;;9.10;49.49;100919.38;4963470;28;8688;-74
2023/03/05 04:01:40;;;;;;;;;;;;;;;9.10;49.10;100918.50;4941446;28;6953;-74
2023/03/05 04:04:06;;;;;;;;;;;;;;;9.07;50.36;100918.28;4961204;28;7379;-74
2023/03/05 04:06:33;;;;;;;;;;;;;;;9.04;49.30;100908.78;4967193;28;8395;-74
2023/03/05 04:08:59;;;;;;;;;;;;;;;9.02;49.84;100906.13;4961973;28;6966;-74
2023/03/05 04:11:24;;;;;;;;;;;;;;;8.99;50.06;100903.38;4964132;28;6972;-74
2023/03/05 04:13:50;;;;;;;;;;;;;;;8.98;49.90;100899.06;4965132;28;6779;-74
2023/03/05 04:16:18;;;;;;;;;;;;;;;8.96;49.48;100902.31;4965876;28;8652;-74
2023/03/05 04:18:44;;;;;;;;;;;;;;;8.96;50.23;100898.06;4959004;28;6987;-74
2023/03/05 04:21:10;;;;;;;;;;;;;;;8.97;50.45;100893.84;4956847;28;8857;-74
2023/03/05 04:23:38;;;;;;;;;;;;;;;8.96;50.02;100895.50;4963152;28;6993;-74
2023/03/05 04:26:04;;;;;;;;;;;;;;;8.99;49.53;100889.69;4965936;28;6832;-74
2023/03/05 04:28:30;;;;;;;;;;;;;;;9.00;50.52;100889.81;4958150;28;6797;-74
2023/03/05 04:30:56;;;;;;;;;;;;;;;8.99;49.68;100885.50;4962040;28;7282;-74
2023/03/05 04:33:21;;;;;;;;;;;;;;;8.97;50.66;100884.47;4963459;28;7014;-74
2023/03/05 04:35:47;;;;;;;;;;;;;;;8.96;50.65;100882.72;4964701;28;7004;-74
2023/03/05 04:38:13;;;;;;;;;;;;;;;8.95;50.00;100878.41;4961796;28;8509;-74
2023/03/05 04:40:39;;;;;;;;;;;;;;;8.94;50.64;100876.63;4963848;28;6804;-73
2023/03/05 04:43:05;;;;;;;;;;;;;;;8.94;50.99;100879.19;4970040;28;6953;-74
2023/03/05 04:45:32;;;;;;;;;;;;;;;8.93;50.44;100872.31;4966507;28;6844;-74
2023/03/05 04:47:58;;;;;;;;;;;;;;;8.90;50.15;100864.47;4962893;28;6852;-74
2023/03/05 04:50:24;;;;;;;;;;;;;;;8.90;50.25;100864.47;4965161;28;7055;-74
2023/03/05 04:52:50;;;;;;;;;;;;;;;8.90;49.78;100854.22;4969462;28;6804;-74
2023/03/05 04:55:17;;;;;;;;;;;;;;;8.91;50.63;100857.66;4963964;28;7848;-74
2023/03/05 04:57:43;;;;;;;;;;;;;;;8.90;50.98;100859.34;4962262;28;6985;-74
2023/03/05 05:00:14;;;;;;;;;;;;;;;8.88;50.15;100855.78;4962562;28;6808;-73
2023/03/05 05:02:46;;;;;;;;;;;;;;;8.87;50.23;100862.59;4961665;28;11267;-74
2023/03/05 05:05:16;;;;;;;;;;;;;;;8.85;49.68;100859.06;4960979;28;6808;-74
2023/03/05 05:07:42;;;;;;;;;;;;;;;8.85;50.60;100859.06;4962710;28;6804;-73
2023/03/05 05:10:10;;;;;;;;;;;;;;;8.85;49.71;100860.72;4965233;28;7325;-74
2023/03/05 05:12:36;;;;;;;;;;;;;;;8.84;50.29;100859.84;4964785;28;6808;-74
2023/03/05 05:15:05;;;;;;;;;;;;;;;8.83;50.45;100858.06;4940685;28;8502;-74
2023/03/05 05:17:31;;;;;;;;;;;;;;;8.83;49.63;100862.31;4964491;28;6824;-74
2023/03/05 05:19:59;;;;;;;;;;;;;;;8.82;50.94;100850.31;4957938;28;6804;-74
2023/03/05 05:22:26;;;;;;;;;;;;;;;8.80;50.04;100851.91;4959973;28;6815;-74
2023/03/05 05:24:52;;;;;;;;;;;;;;;8.78;49.92;100854.34;4967786;28;6978;-74
2023/03/05 05:27:17;;;;;;;;;;;;;;;8.76;49.93;100853.38;4959039;28;8010;-74
2023/03/05 05:29:45;;;;;;;;;;;;;;;8.72;50.15;100844.63;4964552;28;6844;-74
2023/03/05 05:32:11;;;;;;;;;;;;;;;8.70;50.10;100841.09;4954602;28;8926;-74
2023/03/05 05:34:36;;;;;;;;;;;;;;;8.69;51.19;100836.78;4976564;28;7159;-74
2023/03/05 05:37:02;;;;;;;;;;;;;;;8.69;51.22;100839.34;4970739;28;6772;-74
2023/03/05 05:39:30;;;;;;;;;;;;;;;8.70;50.89;100836.00;4958647;28;7193;-74
2023/03/05 05:41:56;;;;;;;;;;;;;;;8.69;50.60;100839.34;4964248;28;6788;-74
2023/03/05 05:44:21;;;;;;;;;;;;;;;8.71;51.02;100832.63;4965445;28;7882;-74
2023/03/05 05:46:47;;;;;;;;;;;;;;;8.73;51.14;100836.16;4964674;28;6995;-74
2023/03/05 05:49:13;;;;;;;;;;;;;;;8.72;51.28;100839.50;4973514;28;7070;-74
2023/03/05 05:51:38;;;;;;;;;;;;;;;8.72;50.37;100839.50;4961967;28;6795;-74
2023/03/05 05:54:04;;;;;;;;;;;;;;;8.74;50.28;100842.19;4956922;28;6796;-74
2023/03/05 05:56:30;;;;;;;;;;;;;;;8.73;50.79;100838.72;4959679;28;8997;-73
2023/03/05 05:58:55;;;;;;;;;;;;;;;8.72;50.68;100834.41;4966509;28;7362;-76
2023/03/05 06:01:30;;;;;;;;;;;;;;;8.70;50.79;100833.44;4958982;28;8505;-76
2023/03/05 06:03:56;;;;;;;;;;;;;;;8.70;50.76;100827.44;4971420;28;6804;-76
2023/03/05 06:06:24;;;;;;;;;;;;;;;8.69;51.03;100834.22;4965874;28;6780;-77
2023/03/05 06:08:51;;;;;;;;;;;;;;;8.68;51.46;100829.88;4973012;28;7156;-77
2023/03/05 06:11:18;;;;;;;;;;;;;;;8.65;50.09;100822.03;4958150;28;6808;-76
2023/03/05 06:13:44;;;;;;;;;;;;;;;8.64;51.28;100822.81;4958667;28;6788;-76
2023/03/05 06:16:15;;;;;;;;;;;;;;;8.65;50.12;100821.16;4962271;28;6847;-76
2023/03/05 06:18:41;;;;;;;;;;;;;;;8.65;50.51;100823.72;4956989;28;6812;-76
2023/03/05 06:21:12;;;;;;;;;;;;;;;8.65;51.08;100828.81;4960642;28;7336;-76
2023/03/05 06:23:38;;;;;;;;;;;;;;;8.64;50.74;100814.25;4964331;28;6964;-76
2023/03/05 06:26:07;;;;;;;;;;;;;;;8.62;50.62;100819.28;4962515;28;6854;-76
2023/03/05 06:28:33;;;;;;;;;;;;;;;8.61;51.29;100820.94;4965322;28;6792;-76
2023/03/05 06:31:06;;;;;;;;;;;;;;;8.59;50.71;100816.53;4960052;28;7124;-76
2023/03/05 06:33:35;;;;;;;;;;;;;;;8.57;51.29;100815.53;4962126;28;6875;-76
2023/03/05 06:36:06;;;;;;;;;;;;;;;8.54;50.73;100815.38;4961092;28;6863;-76
2023/03/05 06:38:32;;;;;;;;;;;;;;;8.52;51.58;100814.38;4960448;28;6835;-77
2023/03/05 06:41:11;;;;;;;;;;;;;;;8.53;51.92;100805.94;4961175;28;6868;-76
2023/03/05 06:43:41;;;;;;;;;;;;;;;8.52;52.30;100810.16;4977154;28;6796;-76
2023/03/05 06:46:12;;;;;;;;;;;;;;;8.55;51.26;100809.47;4952822;28;6808;-75
2023/03/05 06:48:38;;;;;;;;;;;;;;;8.59;52.17;100807.19;4969968;28;6812;-75
2023/03/05 06:51:04;;;;;;;;;;;;;;;8.63;51.91;100807.38;4957033;28;6816;-74
2023/03/05 06:53:30;;;;;;;;;;;;;;;8.65;51.67;100804.13;4960631;28;7027;-74
2023/03/05 06:55:56;;;;;;;;;;;;;;;8.69;51.28;100802.66;4961976;28;6864;-74
2023/03/05 06:58:22;;;;;;;;;;;;;;;8.72;52.51;100801.19;4959744;28;8447;-74
2023/03/05 07:00:48;;;;;;;;;;;;;;;8.73;52.01;100808.06;4954252;28;7179;-74
2023/03/05 07:03:14;;;;;;;;;;;;;;;8.74;51.51;100807.25;4954414;28;6959;-74
2023/03/05 07:05:43;;;;;;;;;;;;;;;8.75;51.98;100805.59;4959820;28;6792;-74
2023/03/05 07:08:09;;;;;;;;;;;;;;;8.77;51.29;100804.03;4954184;28;6887;-74
2023/03/05 07:10:40;;;;;;;;;;;;;;;8.80;52.53;100795.66;4954905;28;8411;-74
2023/03/05 07:13:07;;;;;;;;;;;;;;;8.81;51.18;100798.28;4963924;28;6816;-74
2023/03/05 07:15:37;;;;;;;;;;;;;;;8.82;52.15;100800.06;4930287;28;8720;-74
2023/03/05 07:18:03;;;;;;;;;;;;;;;8.85;51.35;100801.94;4940802;28;7226;-75
2023/03/05 07:20:29;;;;;;;;;;;;;;;8.92;52.06;100804.06;4943357;28;6835;-76
2023/03/05 07:22:55;;;;;;;;;;;;;;;8.99;52.09;100807.88;4940705;28;6768;-77
2023/03/05 07:25:23;;;;;;;;;;;;;;;9.05;51.76;100809.94;4946433;28;6768;-74
2023/03/05 07:27:50;;;;;;;;;;;;;;;9.10;51.51;100809.41;4952503;28;6784;-74
2023/03/05 07:30:16;;;;;;;;;;;;;;;9.15;52.39;100804.56;4936032;28;6788;-74
2023/03/05 07:32:41;;;;;;;;;;;;;;;9.20;51.65;100807.41;4962332;28;6792;-74
2023/03/05 07:35:08;;;;;;;;;;;;;;;9.24;52.61;100804.25;4947126;28;7067;-74
2023/03/05 07:37:33;;;;;;;;;;;;;;;9.29;51.55;100803.75;4948298;28;6792;-74
2023/03/05 07:39:59;;;;;;;;;;;;;;;9.35;51.79;100803.22;4942998;28;7252;-74
2023/03/05 07:42:25;;;;;;;;;;;;;;;9.42;52.16;100799.34;4943571;28;6844;-74
2023/03/05 07:44:50;;;;;;;;;;;;;;;9.47;51.71;100802.19;4945002;28;6772;-74
2023/03/05 07:47:16;;;;;;;;;;;;;;;9.48;51.62;100798.81;4934374;28;7527;-74
2023/03/05 07:49:42;;;;;;;;;;;;;;;9.48;51.03;100804.84;4934736;28;7193;-74
2023/03/05 07:52:09;;;;;;;;;;;;;;;9.49;51.56;100804.03;4944141;28;6811;-74
2023/03/05 07:54:38;;;;;;;;;;;;;;;9.49;51.87;100793.81;4939105;28;7015;-74
2023/03/05 07:57:05;;;;;;;;;;;;;;;9.49;51.32;100791.25;4963717;28;7184;-74
2023/03/05 07:59:31;;;;;;;;;;;;;;;9.49;51.53;100790.34;4963938;28;6983;-74
2023/03/05 08:01:57;;;;;;;;;;;;;;;9.48;50.97;100781.81;4928770;28;7321;-74
2023/03/05 08:04:23;;;;;;;;;;;;;;;9.49;51.79;100786.13;4964109;28;6955;-75
2023/03/05 08:06:49;;;;;;;;;;;;;;;9.49;51.18;100782.69;4934454;28;7028;-75
2023/03/05 08:09:16;;;;;;;;;;;;;;;9.51;52.08;100778.53;4922077;28;8823;-75
2023/03/05 08:11:42;;;;;;;;;;;;;;;9.54;51.48;100779.59;4938769;28;6981;-75
2023/03/05 08:14:08;;;;;;;;;;;;;;;9.58;51.84;100778.09;4942002;28;6923;-74
2023/03/05 08:16:34;;;;;;;;;;;;;;;9.61;51.93;100767.16;4927828;28;8493;-74
2023/03/05 08:19:00;;;;;;;;;;;;;;;9.64;51.75;100769.88;4941275;28;6784;-75
2023/03/05 08:21:32;;;;;;;;;;;;;;;9.66;50.78;100773.44;4959907;28;6935;-74
2023/03/05 08:24:02;;;;;;;;;;;;;;;9.69;51.14;100768.50;4930298;28;8730;-75
2023/03/05 08:26:30;;;;;;;;;;;;;;;9.69;50.87;100761.69;4945579;28;6876;-75
2023/03/05 08:28:57;;;;;;;;;;;;;;;9.72;50.83;100763.53;4944266;28;6800;-75
2023/03/05 08:31:25;;;;;;;;;;;;;;;9.75;51.67;100763.69;4956586;28;7187;-75
2023/03/05 08:33:54;;;;;;;;;;;;;;;9.79;50.79;100764.75;4940596;28;6799;-76
2023/03/05 08:36:20;;;;;;;;;;;;;;;9.84;50.83;100756.53;4946524;28;7219;-76
2023/03/05 08:38:47;;;;;;;;;;;;;;;9.88;50.62;100749.06;4940747;28;7284;-75
2023/03/05 08:41:15;;;;;;;;;;;;;;;9.96;50.89;100751.25;4937040;28;6808;-75
2023/03/05 08:43:41;;;;;;;;;;;;;;;10.03;51.61;100749.91;4939571;28;6868;-75
2023/03/05 08:46:08;;;;;;;;;;;;;;;10.11;51.00;100746.09;4944661;28;6966;-75
2023/03/05 08:48:34;;;;;;;;;;;;;;;10.21;50.77;100750.06;4938921;28;7831;-75
2023/03/05 08:51:06;;;;;;;;;;;;;;;10.30;50.94;100736.00;4946830;28;7986;-75
2023/03/05 08:53:32;;;;;;;;;;;;;;;10.39;50.39;100734.78;4938211;28;7234;-75
2023/03/05 08:55:59;;;;;;;;;;;;;;;10.46;50.71;100737.72;4945899;28;7587;-75
2023/03/05 08:58:27;;;;;;;;;;;;;;;10.48;50.07;100733.56;4946887;28;6809;-75
2023/03/05 09:00:53;;;;;;;;;;;;;;;10.51;50.37;100728.59;4939098;28;6876;-75
2023/03/05 09:03:18;;;;;;;;;;;;;;;10.55;49.77;100726.28;4938414;28;6937;-74
2023/03/05 09:05:44;;;;;;;;;;;;;;;10.60;49.85;100729.06;4937744;28;6792;-74
2023/03/05 09:08:10;;;;;;;;;;;;;;;10.67;50.06;100727.72;4960716;28;6860;-75
2023/03/05 09:10:36;;;;;;;;;;;;;;;10.70;49.63;100713.38;4940685;28;6876;-74
2023/03/05 09:13:03;;;;;;;;;;;;;;;10.72;49.21;100717.72;4954469;28;8358;-75
2023/03/05 09:15:30;;;;;;;;;;;;;;;10.67;49.13;100720.91;4937613;28;6796;-75
2023/03/05 09:17:57;;;;;;;;;;;;;;;10.58;49.40;100719.56;4964560;28;6800;-75
2023/03/05 09:20:22;;;;;;;;;;;;;;;10.44;49.22;100718.84;4936299;28;6788;-75
2023/03/05 09:22:48;;;;;;;;;;;;;;;10.28;49.26;100721.41;4933213;28;7308;-74
2023/03/05 09:25:13;;;;;;;;;;;;;;;10.12;49.47;100724.78;4943597;28;6839;-75
2023/03/05 09:27:39;;;;;;;;;;;;;;;9.95;49.22;100726.44;4952326;28;7186;-75
2023/03/05 09:30:06;;;;;;;;;;;;;;;9.78;49.76;100722.94;4937741;28;6764;-75
2023/03/05 09:32:31;;;;;;;;;;;;;;;9.67;50.63;100714.63;4936781;28;6796;-74
2023/03/05 09:34:57;;;;;;;;;;;;;;;9.62;50.19;100715.19;4936737;28;6772;-75
2023/03/05 09:37:24;;;;;;;;;;;;;;;9.57;51.32;100708.13;4946378;28;6916;-75
2023/03/05 09:39:49;;;;;;;;;;;;;;;9.54;50.87;100718.19;4946873;28;6804;-75
2023/03/05 09:42:58;;;;;;;;;;;;;;;9.51;51.29;100707.78;4942308;28;8470;-75
2023/03/05 09:45:46;;;;;;;;;;;;;;;9.51;51.35;100696.63;4939796;28;8515;-74
2023/03/05 09:48:21;;;;;;;;;;;;;;;9.58;52.58;100693.66;4940249;28;7810;-75
2023/03/05 09:50:52;;;;;;;;;;;;;;;9.72;52.88;100694.44;4939477;28;7073;-75
2023/03/05 09:53:58;;;;;;;;;;;;;;;9.88;52.26;100691.03;4942586;28;7038;-75
2023/03/05 09:56:38;;;;;;;;;;;;;;;10.04;52.13;100685.06;4957151;28;6965;-75
2023/03/05 10:00:00;;;;;;;;;;;;;;;10.18;52.34;100682.41;4935200;28;6808;-74
2023/03/05 10:02:46;;;;;;;;;;;;;;;10.32;52.51;100681.44;4929842;28;6840;-75
2023/03/05 10:05:26;;;;;;;;;;;;;;;10.48;52.40;100682.31;4960252;28;6880;-74
2023/03/05 10:08:04;;;;;;;;;;;;;;;10.64;52.46;100679.75;4955078;28;7018;-74
2023/03/05 10:10:46;;;;;;;;;;;;;;;10.81;52.04;100674.59;4958141;28;7224;-75
2023/03/05 10:13:17;;;;;;;;;;;;;;;10.94;51.95;100671.88;4933299;28;8742;-75
2023/03/05 10:16:25;;;;;;;;;;;;;;;11.05;51.66;100666.41;4940156;28;6807;-74
2023/03/05 10:19:06;;;;;;;;;;;;;;;11.18;51.58;100671.34;4900714;28;10067;-75
2023/03/05 10:21:51;;;;;;;;;;;;;;;11.33;51.21;100675.47;4943406;28;6846;-75
2023/03/05 10:24:55;;;;;;;;;;;;;;;11.43;51.23;100666.53;4939233;28;7195;-74
2023/03/05 10:28:04;;;;;;;;;;;;;;;11.46;50.57;100669.28;4943416;28;6984;-74
2023/03/05 10:31:07;;;;;;;;;;;;;;;11.47;50.57;100666.75;4943232;28;8467;-74
2023/03/05 10:33:44;;;;;;;;;;;;;;;11.52;50.97;100655.03;4945449;28;7202;-74
2023/03/05 10:37:06;;;;;;;;;;;;;;;11.64;50.55;100654.75;4947854;28;7123;-75
2023/03/05 10:40:36;;;;;;;;;;;;;;;11.75;50.17;100647.53;4941204;28;7247;-76
2023/03/05 10:43:22;;;;;;;;;;;;;;;11.75;49.48;100652.69;4940306;28;7015;-75
2023/03/05 10:45:52;;;;;;;;;;;;;;;11.71;49.35;100643.09;4943091;28;6804;-75
2023/03/05 10:48:43;;;;;;;;;;;;;;;11.70;49.55;100641.31;4958094;28;6804;-74
2023/03/05 10:51:39;;;;;;;;;;;;;;;11.74;49.68;100642.34;4965308;28;6796;-75
2023/03/05 10:54:40;;;;;;;;;;;;;;;11.80;49.77;100640.94;4941325;28;6792;-75
2023/03/05 10:57:26;;;;;;;;;;;;;;;11.87;49.16;100641.22;4946409;28;6986;-75
2023/03/05 11:00:19;;;;;;;;;;;;;;;11.86;48.59;100636.88;4950724;28;6974;-76
2023/03/05 11:03:04;;;;;;;;;;;;;;;11.84;48.85;100638.50;4947990;28;11192;-76
2023/03/05 11:05:46;;;;;;;;;;;;;;;11.87;48.93;100631.84;4946451;28;7177;-76
2023/03/05 11:08:33;;;;;;;;;;;;;;;11.96;48.85;100626.22;4942439;28;8145;-76
2023/03/05 11:11:08;;;;;;;;;;;;;;;11.99;48.38;100631.53;4945415;28;7177;-76
2023/03/05 11:13:43;;;;;;;;;;;;;;;12.02;47.75;100630.75;4945719;28;6772;-76
2023/03/05 11:16:20;;;;;;;;;;;;;;;11.97;47.67;100616.84;4944541;28;7913;-75
2023/03/05 11:18:45;;;;;;;;;;;;;;;11.89;47.64;100617.38;4926148;28;6979;-75
2023/03/05 11:21:26;;;;;;;;;;;;;;;11.81;47.19;100614.44;4949283;28;6784;-75
2023/03/05 11:24:13;;;;;;;;;;;;;;;11.79;47.57;100613.50;4954898;28;7557;-75
2023/03/05 11:26:55;;;;;;;;;;;;;;;11.76;47.80;100605.63;4947725;28;6868;-75
2023/03/05 11:29:32;;;;;;;;;;;;;;;11.76;47.91;100612.47;4951164;28;7321;-75
2023/03/05 11:32:25;;;;;;;;;;;;;;;11.75;47.78;100605.59;4942580;28;7873;-75
2023/03/05 11:34:52;;;;;;;;;;;;;;;11.77;47.53;100607.41;4951179;28;6812;-75
2023/03/05 11:37:26;;;;;;;;;;;;;;;11.85;46.96;100604.31;4941870;28;7118;-75
2023/03/05 11:40:07;;;;;;;;;;;;;;;11.92;47.26;100599.53;4945907;28;6808;-75
2023/03/05 11:42:33;;;;;;;;;;;;;;;11.99;47.15;100586.97;4942882;28;6800;-76
2023/03/05 11:45:00;;;;;;;;;;;;;;;12.10;47.16;100590.06;4943539;28;6768;-76
2023/03/05 11:47:58;;;;;;;;;;;;;;;12.23;46.69;100589.78;4935331;28;7050;-75
2023/03/05 11:50:27;;;;;;;;;;;;;;;12.35;46.42;100581.75;4941459;28;7033;-75
2023/03/05 11:53:20;;;;;;;;;;;;;;;12.48;46.33;100575.44;4938558;28;8078;-75
2023/03/05 11:55:58;;;;;;;;;;;;;;;12.58;46.15;100567.31;4937871;28;6856;-74
2023/03/05 11:58:42;;;;;;;;;;;;;;;12.66;46.66;100559.91;4944547;28;7399;-74
2023/03/05 12:01:24;;;;;;;;;;;;;;;12.75;45.77;100559.44;4940536;28;6820;-74
2023/03/05 12:03:51;;;;;;;;;;;;;;;12.83;45.87;100546.88;4925259;28;8522;-74
2023/03/05 12:06:45;;;;;;;;;;;;;;;12.93;45.18;100538.72;4940573;28;6988;-75
2023/03/05 12:09:40;;;;;;;;;;;;;;;13.03;45.87;100534.81;4951669;28;6824;-74
2023/03/05 12:12:31;;;;;;;;;;;;;;;13.05;44.71;100530.63;4946292;28;7875;-74
2023/03/05 12:15:11;;;;;;;;;;;;;;;13.00;43.78;100525.28;4942149;28;6800;-73
2023/03/05 12:17:53;;;;;;;;;;;;;;;12.96;43.87;100519.97;4944275;28;7041;-73
2023/03/05 12:20:52;;;;;;;;;;;;;;;12.90;44.09;100513.75;4955905;28;6816;-74
2023/03/05 12:23:20;;;;;;;;;;;;;;;12.83;43.45;100516.88;4937690;28;6796;-75
2023/03/05 12:25:55;;;;;;;;;;;;;;;12.75;43.99;100513.16;4940713;28;7232;-75
2023/03/05 12:28:30;;;;;;;;;;;;;;;12.66;43.19;100508.47;4958436;28;6888;-75
2023/03/05 12:31:24;;;;;;;;;;;;;;;12.58;44.09;100505.59;4948175;28;6800;-74
2023/03/05 12:33:49;;;;;;;;;;;;;;;12.47;43.25;100496.56;4931690;28;8516;-74
2023/03/05 12:36:18;;;;;;;;;;;;;;;12.38;43.12;100491.03;4945551;28;6780;-76
2023/03/05 12:38:50;;;;;;;;;;;;;;;12.29;43.79;100489.84;4945463;28;6791;-74
2023/03/05 12:41:22;;;;;;;;;;;;;;;12.20;43.32;100492.00;4938183;28;6804;-74
2023/03/05 12:44:05;;;;;;;;;;;;;;;12.09;43.75;100473.56;4940942;28;6792;-74
2023/03/05 12:46:39;;;;;;;;;;;;;;;12.01;44.08;100470.63;4943894;28;6787;-74
2023/03/05 12:49:21;;;;;;;;;;;;;;;11.92;43.28;100476.22;4944053;28;7262;-74
2023/03/05 12:51:53;;;;;;;;;;;;;;;11.82;43.55;100466.38;4948489;28;6835;-74
2023/03/05 12:54:28;;;;;;;;;;;;;;;11.72;43.92;100467.66;4963962;28;6903;-74
2023/03/05 12:56:59;;;;;;;;;;;;;;;11.62;43.89;100466.38;4943172;28;8683;-74
2023/03/05 12:59:42;;;;;;;;;;;;;;;11.49;44.30;100458.94;4949934;28;7217;-74
2023/03/05 13:02:30;;;;;;;;;;;;;;;11.32;44.37;100453.91;4936169;28;6796;-74
2023/03/05 13:05:34;;;;;;;;;;;;;;;11.19;44.85;100443.91;4958733;28;6942;-74
2023/03/05 13:08:24;;;;;;;;;;;;;;;11.09;44.94;100443.47;4955279;28;6970;-74
2023/03/05 13:10:59;;;;;;;;;;;;;;;11.03;45.47;100439.75;4945686;28;6984;-74
2023/03/05 13:13:29;;;;;;;;;;;;;;;11.00;45.78;100432.78;4959573;28;8022;-74
2023/03/05 13:15:56;;;;;;;;;;;;;;;11.03;46.02;100432.91;4962654;28;7077;-74